Terminal Aerodrome Forecast
Issued by NWS Paducah, KY

Home | Current Version | Previous Version | Text Only | Print | Product List | Glossary On
Versions: 1 2 3 4 5 6 7 8 9 10 11 12 13 14
000
FTUS43 KPAH 142300
TAFEVV
TAF
KEVV 142320Z 1500/1524 00000KT P6SM SKC
     FM151500 18003KT P6SM SCT050
      TEMPO 1522/1524 BKN050=

USA.gov is the U.S. government's official web portal to all federal, state and local government web resources and services.